sensor_id;sensor_type;location;lat;lon;timestamp;pressure;altitude;pressure_sealevel;temperature;humidity
8101;BME280;4093;53.470;9.832;2023-07-02T00:00:17;100207.34;;;18.35;87.94
8101;BME280;4093;53.470;9.832;2023-07-02T00:02:45;100226.31;;;18.39;87.71
8101;BME280;4093;53.470;9.832;2023-07-02T00:05:13;100230.75;;;18.53;87.15
8101;BME280;4093;53.470;9.832;2023-07-02T00:07:40;100219.34;;;18.23;88.49
8101;BME280;4093;53.470;9.832;2023-07-02T00:10:09;100228.94;;;18.39;87.69
8101;BME280;4093;53.470;9.832;2023-07-02T00:12:38;100218.16;;;18.29;88.53
8101;BME280;4093;53.470;9.832;2023-07-02T00:15:06;100210.94;;;18.18;88.57
8101;BME280;4093;53.470;9.832;2023-07-02T00:17:34;100221.66;;;18.44;87.82
8101;BME280;4093;53.470;9.832;2023-07-02T00:20:07;100207.66;;;18.15;88.60
8101;BME280;4093;53.470;9.832;2023-07-02T00:22:40;100215.00;;;18.24;88.38
8101;BME280;4093;53.470;9.832;2023-07-02T00:25:12;100215.19;;;18.35;88.16
8101;BME280;4093;53.470;9.832;2023-07-02T00:27:42;100228.69;;;18.58;87.58
8101;BME280;4093;53.470;9.832;2023-07-02T00:30:10;100230.09;;;18.49;88.19
8101;BME280;4093;53.470;9.832;2023-07-02T00:32:38;100225.53;;;18.53;87.74
8101;BME280;4093;53.470;9.832;2023-07-02T00:35:06;100202.31;;;18.16;88.58
8101;BME280;4093;53.470;9.832;2023-07-02T00:37:34;100227.50;;;18.49;88.16
8101;BME280;4093;53.470;9.832;2023-07-02T00:40:02;100236.38;;;18.61;87.88
8101;BME280;4093;53.470;9.832;2023-07-02T00:42:29;100233.97;;;18.72;87.39
8101;BME280;4093;53.470;9.832;2023-07-02T00:44:58;100227.63;;;18.76;87.14
8101;BME280;4093;53.470;9.832;2023-07-02T00:47:30;100220.66;;;18.61;87.78
8101;BME280;4093;53.470;9.832;2023-07-02T00:50:00;100229.25;;;18.79;86.98
8101;BME280;4093;53.470;9.832;2023-07-02T00:52:29;100223.22;;;18.62;87.23
8101;BME280;4093;53.470;9.832;2023-07-02T00:54:56;100224.75;;;18.81;86.44
8101;BME280;4093;53.470;9.832;2023-07-02T00:57:24;100219.06;;;19.03;85.45
8101;BME280;4093;53.470;9.832;2023-07-02T00:59:56;100145.34;;;18.36;86.91
8101;BME280;4093;53.470;9.832;2023-07-02T01:02:25;100215.72;;;18.70;87.19
8101;BME280;4093;53.470;9.832;2023-07-02T01:04:56;100222.78;;;18.84;86.49
8101;BME280;4093;53.470;9.832;2023-07-02T01:07:27;100230.38;;;18.89;85.29
8101;BME280;4093;53.470;9.832;2023-07-02T01:09:55;100223.34;;;18.75;85.98
8101;BME280;4093;53.470;9.832;2023-07-02T01:12:23;100230.38;;;18.75;86.17
8101;BME280;4093;53.470;9.832;2023-07-02T01:14:52;100220.03;;;18.71;86.00
8101;BME280;4093;53.470;9.832;2023-07-02T01:17:22;100213.75;;;18.30;88.76
8101;BME280;4093;53.470;9.832;2023-07-02T01:19:54;100215.66;;;18.27;88.51
8101;BME280;4093;53.470;9.832;2023-07-02T01:22:26;100214.75;;;18.43;87.91
8101;BME280;4093;53.470;9.832;2023-07-02T01:24:54;100202.31;;;18.16;89.24
8101;BME280;4093;53.470;9.832;2023-07-02T01:27:22;100232.50;;;18.38;88.70
8101;BME280;4093;53.470;9.832;2023-07-02T01:29:51;100220.34;;;18.37;88.64
8101;BME280;4093;53.470;9.832;2023-07-02T01:32:19;100217.75;;;18.51;88.56
8101;BME280;4093;53.470;9.832;2023-07-02T01:34:48;100205.38;;;18.39;88.68
8101;BME280;4093;53.470;9.832;2023-07-02T01:37:17;100208.81;;;18.25;89.70
8101;BME280;4093;53.470;9.832;2023-07-02T01:39:45;100216.50;;;18.42;88.15
8101;BME280;4093;53.470;9.832;2023-07-02T01:42:14;100211.25;;;18.28;88.93
8101;BME280;4093;53.470;9.832;2023-07-02T01:44:44;100220.91;;;18.42;88.59
8101;BME280;4093;53.470;9.832;2023-07-02T01:47:12;100191.81;;;18.02;89.77
8101;BME280;4093;53.470;9.832;2023-07-02T01:49:40;100217.16;;;18.32;88.98
8101;BME280;4093;53.470;9.832;2023-07-02T01:52:08;100195.81;;;17.62;91.65
8101;BME280;4093;53.470;9.832;2023-07-02T01:54:37;100230.94;;;18.19;89.99
8101;BME280;4093;53.470;9.832;2023-07-02T01:57:05;100230.13;;;18.33;89.20
8101;BME280;4093;53.470;9.832;2023-07-02T01:59:32;100230.13;;;18.33;88.66
8101;BME280;4093;53.470;9.832;2023-07-02T02:02:01;100231.97;;;18.47;87.79
8101;BME280;4093;53.470;9.832;2023-07-02T02:04:29;100222.16;;;18.20;89.23
8101;BME280;4093;53.470;9.832;2023-07-02T02:06:56;100222.50;;;18.14;89.67
8101;BME280;4093;53.470;9.832;2023-07-02T02:09:24;100210.13;;;17.86;90.44
8101;BME280;4093;53.470;9.832;2023-07-02T02:11:56;100231.91;;;18.02;90.56
8101;BME280;4093;53.470;9.832;2023-07-02T02:14:24;100203.72;;;17.92;89.98
8101;BME280;4093;53.470;9.832;2023-07-02T02:16:51;100229.78;;;18.09;89.29
8101;BME280;4093;53.470;9.832;2023-07-02T02:19:19;100236.22;;;18.03;89.70
8101;BME280;4093;53.470;9.832;2023-07-02T02:21:47;100237.28;;;18.15;89.57
8101;BME280;4093;53.470;9.832;2023-07-02T02:24:14;100233.59;;;18.03;89.91
8101;BME280;4093;53.470;9.832;2023-07-02T02:26:42;100222.81;;;17.94;90.32
8101;BME280;4093;53.470;9.832;2023-07-02T02:29:11;100258.56;;;18.39;89.30
8101;BME280;4093;53.470;9.832;2023-07-02T02:31:39;100256.38;;;18.47;88.49
8101;BME280;4093;53.470;9.832;2023-07-02T02:34:07;100250.09;;;18.20;89.61
8101;BME280;4093;53.470;9.832;2023-07-02T02:36:34;100229.03;;;18.07;89.15
8101;BME280;4093;53.470;9.832;2023-07-02T02:39:02;100246.13;;;18.29;88.71
8101;BME280;4093;53.470;9.832;2023-07-02T02:41:31;100256.81;;;18.40;88.18
8101;BME280;4093;53.470;9.832;2023-07-02T02:43:59;100258.81;;;18.50;87.62
8101;BME280;4093;53.470;9.832;2023-07-02T02:46:28;100239.72;;;18.18;88.85
8101;BME280;4093;53.470;9.832;2023-07-02T02:48:56;100239.81;;;18.17;88.59
8101;BME280;4093;53.470;9.832;2023-07-02T02:51:23;100241.59;;;18.16;89.07
8101;BME280;4093;53.470;9.832;2023-07-02T02:53:51;100238.31;;;18.13;88.93
8101;BME280;4093;53.470;9.832;2023-07-02T02:56:19;100251.28;;;18.14;88.84
8101;BME280;4093;53.470;9.832;2023-07-02T02:58:47;100241.34;;;17.89;89.52
8101;BME280;4093;53.470;9.832;2023-07-02T03:01:14;100242.69;;;18.12;88.31
8101;BME280;4093;53.470;9.832;2023-07-02T03:03:43;100245.38;;;18.11;88.42
8101;BME280;4093;53.470;9.832;2023-07-02T03:06:13;100244.56;;;17.94;88.68
8101;BME280;4093;53.470;9.832;2023-07-02T03:08:41;100251.84;;;18.05;88.17
8101;BME280;4093;53.470;9.832;2023-07-02T03:11:09;100259.19;;;18.29;87.00
8101;BME280;4093;53.470;9.832;2023-07-02T03:13:37;100246.91;;;18.15;88.10
8101;BME280;4093;53.470;9.832;2023-07-02T03:16:05;100244.47;;;18.12;87.71
8101;BME280;4093;53.470;9.832;2023-07-02T03:18:34;100234.91;;;18.11;87.13
8101;BME280;4093;53.470;9.832;2023-07-02T03:21:03;100250.88;;;18.22;86.75
8101;BME280;4093;53.470;9.832;2023-07-02T03:23:31;100240.50;;;18.04;87.17
8101;BME280;4093;53.470;9.832;2023-07-02T03:25:58;100255.94;;;18.09;87.40
8101;BME280;4093;53.470;9.832;2023-07-02T03:28:26;100244.41;;;17.97;87.38
8101;BME280;4093;53.470;9.832;2023-07-02T03:30:54;100254.94;;;18.12;86.93
8101;BME280;4093;53.470;9.832;2023-07-02T03:33:21;100246.78;;;18.02;87.68
8101;BME280;4093;53.470;9.832;2023-07-02T03:35:49;100239.59;;;18.06;86.63
8101;BME280;4093;53.470;9.832;2023-07-02T03:38:18;100244.91;;;18.04;86.95
8101;BME280;4093;53.470;9.832;2023-07-02T03:40:47;100231.00;;;17.88;87.46
8101;BME280;4093;53.470;9.832;2023-07-02T03:43:15;100239.31;;;18.10;86.06
8101;BME280;4093;53.470;9.832;2023-07-02T03:45:42;100245.41;;;18.41;84.65
8101;BME280;4093;53.470;9.832;2023-07-02T03:48:10;100252.25;;;18.43;84.17
8101;BME280;4093;53.470;9.832;2023-07-02T03:50:38;100234.69;;;18.30;84.63
8101;BME280;4093;53.470;9.832;2023-07-02T03:53:06;100241.53;;;18.32;84.41
8101;BME280;4093;53.470;9.832;2023-07-02T03:55:35;100247.31;;;18.53;83.82
8101;BME280;4093;53.470;9.832;2023-07-02T03:58:05;100249.81;;;18.40;84.31
8101;BME280;4093;53.470;9.832;2023-07-02T04:00:33;100204.22;;;17.98;84.23
8101;BME280;4093;53.470;9.832;2023-07-02T04:03:00;100242.97;;;18.38;83.63
8101;BME280;4093;53.470;9.832;2023-07-02T04:05:29;100250.81;;;18.38;84.41
8101;BME280;4093;53.470;9.832;2023-07-02T04:07:57;100251.28;;;18.14;85.28
8101;BME280;4093;53.470;9.832;2023-07-02T04:10:26;100250.06;;;18.06;85.91
8101;BME280;4093;53.470;9.832;2023-07-02T04:12:55;100263.50;;;18.60;83.59
8101;BME280;4093;53.470;9.832;2023-07-02T04:15:22;100256.72;;;18.71;83.04
8101;BME280;4093;53.470;9.832;2023-07-02T04:17:51;100261.53;;;18.63;82.73
8101;BME280;4093;53.470;9.832;2023-07-02T04:20:19;100255.25;;;18.52;83.41
8101;BME280;4093;53.470;9.832;2023-07-02T04:22:47;100267.34;;;18.84;82.46
8101;BME280;4093;53.470;9.832;2023-07-02T04:25:15;100287.09;;;19.47;79.58
8101;BME280;4093;53.470;9.832;2023-07-02T04:27:57;100304.03;;;20.53;75.59
8101;BME280;4093;53.470;9.832;2023-07-02T04:30:25;100282.06;;;21.69;69.58
8101;BME280;4093;53.470;9.832;2023-07-02T04:32:53;100281.06;;;23.01;65.81
8101;BME280;4093;53.470;9.832;2023-07-02T04:35:21;100236.94;;;22.34;66.57
8101;BME280;4093;53.470;9.832;2023-07-02T04:37:48;100251.09;;;22.45;66.96
8101;BME280;4093;53.470;9.832;2023-07-02T04:40:16;100240.94;;;22.16;67.25
8101;BME280;4093;53.470;9.832;2023-07-02T04:42:44;100228.47;;;22.18;67.05
8101;BME280;4093;53.470;9.832;2023-07-02T04:45:15;100236.44;;;23.54;62.49
8101;BME280;4093;53.470;9.832;2023-07-02T04:47:44;100253.50;;;24.05;63.83
8101;BME280;4093;53.470;9.832;2023-07-02T04:50:12;100249.88;;;24.38;61.32
8101;BME280;4093;53.470;9.832;2023-07-02T04:52:40;100233.69;;;24.32;60.97
8101;BME280;4093;53.470;9.832;2023-07-02T04:55:08;100206.09;;;23.49;62.03
8101;BME280;4093;53.470;9.832;2023-07-02T04:57:36;100242.69;;;24.61;60.26
8101;BME280;4093;53.470;9.832;2023-07-02T05:00:05;100243.84;;;25.60;56.73
8101;BME280;4093;53.470;9.832;2023-07-02T05:02:35;100224.84;;;25.36;56.38
8101;BME280;4093;53.470;9.832;2023-07-02T05:05:04;100226.25;;;23.72;61.46
8101;BME280;4093;53.470;9.832;2023-07-02T05:07:31;100230.38;;;24.18;61.08
8101;BME280;4093;53.470;9.832;2023-07-02T05:09:59;100208.97;;;23.46;60.84
8101;BME280;4093;53.470;9.832;2023-07-02T05:12:27;100235.78;;;24.70;59.29
8101;BME280;4093;53.470;9.832;2023-07-02T05:14:55;100242.47;;;25.26;57.97
8101;BME280;4093;53.470;9.832;2023-07-02T05:17:22;100216.84;;;25.17;57.38
8101;BME280;4093;53.470;9.832;2023-07-02T05:19:52;100217.16;;;25.02;57.15
8101;BME280;4093;53.470;9.832;2023-07-02T05:22:20;100219.75;;;25.13;56.76
8101;BME280;4093;53.470;9.832;2023-07-02T05:24:48;100239.75;;;26.55;54.57
8101;BME280;4093;53.470;9.832;2023-07-02T05:27:15;100238.75;;;27.68;51.16
8101;BME280;4093;53.470;9.832;2023-07-02T05:29:43;100230.19;;;27.19;52.04
8101;BME280;4093;53.470;9.832;2023-07-02T05:32:11;100204.88;;;26.01;53.90
8101;BME280;4093;53.470;9.832;2023-07-02T05:34:38;100238.91;;;24.54;58.47
8101;BME280;4093;53.470;9.832;2023-07-02T05:37:08;100248.16;;;26.88;53.58
8101;BME280;4093;53.470;9.832;2023-07-02T05:39:35;100242.00;;;27.34;52.08
8101;BME280;4093;53.470;9.832;2023-07-02T05:42:03;100225.59;;;27.21;50.57
8101;BME280;4093;53.470;9.832;2023-07-02T05:44:31;100236.88;;;26.86;52.78
8101;BME280;4093;53.470;9.832;2023-07-02T05:46:59;100233.03;;;28.08;49.74
8101;BME280;4093;53.470;9.832;2023-07-02T05:49:27;100231.53;;;28.14;49.27
8101;BME280;4093;53.470;9.832;2023-07-02T05:51:54;100262.72;;;28.04;50.07
8101;BME280;4093;53.470;9.832;2023-07-02T05:54:23;100253.91;;;27.30;52.79
8101;BME280;4093;53.470;9.832;2023-07-02T05:56:51;100239.94;;;27.83;50.74
8101;BME280;4093;53.470;9.832;2023-07-02T05:59:19;100249.66;;;26.34;53.20
8101;BME280;4093;53.470;9.832;2023-07-02T06:01:47;100250.13;;;27.33;51.30
8101;BME280;4093;53.470;9.832;2023-07-02T06:04:14;100267.75;;;26.38;53.80
8101;BME280;4093;53.470;9.832;2023-07-02T06:06:42;100271.03;;;28.63;49.93
8101;BME280;4093;53.470;9.832;2023-07-02T06:09:10;100254.13;;;28.98;48.19
8101;BME280;4093;53.470;9.832;2023-07-02T06:11:39;100235.16;;;29.78;46.11
8101;BME280;4093;53.470;9.832;2023-07-02T06:14:07;100239.88;;;30.16;45.67
8101;BME280;4093;53.470;9.832;2023-07-02T06:16:35;100263.16;;;27.81;50.01
8101;BME280;4093;53.470;9.832;2023-07-02T06:19:03;100256.31;;;28.32;49.35
8101;BME280;4093;53.470;9.832;2023-07-02T06:21:30;100274.22;;;28.66;49.36
8101;BME280;4093;53.470;9.832;2023-07-02T06:23:58;100253.53;;;28.86;48.03
8101;BME280;4093;53.470;9.832;2023-07-02T06:26:26;100260.13;;;29.00;47.88
8101;BME280;4093;53.470;9.832;2023-07-02T06:28:55;100233.63;;;28.02;49.45
8101;BME280;4093;53.470;9.832;2023-07-02T06:31:23;100270.09;;;27.37;50.70
8101;BME280;4093;53.470;9.832;2023-07-02T06:33:51;100264.84;;;27.55;50.33
8101;BME280;4093;53.470;9.832;2023-07-02T06:36:19;100275.88;;;28.41;48.96
8101;BME280;4093;53.470;9.832;2023-07-02T06:38:47;100278.00;;;28.55;49.57
8101;BME280;4093;53.470;9.832;2023-07-02T06:41:15;100278.31;;;29.31;47.75
8101;BME280;4093;53.470;9.832;2023-07-02T06:43:42;100277.00;;;29.85;45.61
8101;BME280;4093;53.470;9.832;2023-07-02T06:46:12;100271.97;;;27.17;49.63
8101;BME280;4093;53.470;9.832;2023-07-02T06:48:40;100278.50;;;28.59;47.88
8101;BME280;4093;53.470;9.832;2023-07-02T06:51:07;100299.31;;;29.42;46.65
8101;BME280;4093;53.470;9.832;2023-07-02T06:53:36;100280.88;;;28.44;48.00
8101;BME280;4093;53.470;9.832;2023-07-02T06:56:04;100300.22;;;28.72;48.33
8101;BME280;4093;53.470;9.832;2023-07-02T06:58:31;100299.66;;;28.87;48.27
8101;BME280;4093;53.470;9.832;2023-07-02T07:00:59;100306.25;;;27.00;51.17
8101;BME280;4093;53.470;9.832;2023-07-02T07:03:28;100321.13;;;28.13;49.06
8101;BME280;4093;53.470;9.832;2023-07-02T07:05:56;100339.47;;;28.34;48.61
8101;BME280;4093;53.470;9.832;2023-07-02T07:08:24;100319.34;;;28.50;47.73
8101;BME280;4093;53.470;9.832;2023-07-02T07:10:52;100320.72;;;28.80;47.92
8101;BME280;4093;53.470;9.832;2023-07-02T07:13:19;100327.69;;;27.64;49.95
8101;BME280;4093;53.470;9.832;2023-07-02T07:15:47;100349.97;;;27.06;51.30
8101;BME280;4093;53.470;9.832;2023-07-02T07:18:15;100338.66;;;25.36;55.43
8101;BME280;4093;53.470;9.832;2023-07-02T07:20:46;100346.72;;;23.51;57.77
8101;BME280;4093;53.470;9.832;2023-07-02T07:23:15;100356.47;;;22.69;60.62
8101;BME280;4093;53.470;9.832;2023-07-02T07:25:43;100369.59;;;23.17;59.79
8101;BME280;4093;53.470;9.832;2023-07-02T07:28:10;100366.13;;;22.57;61.32
8101;BME280;4093;53.470;9.832;2023-07-02T07:30:42;100373.03;;;22.47;60.95
8101;BME280;4093;53.470;9.832;2023-07-02T07:33:10;100384.44;;;23.06;60.30
8101;BME280;4093;53.470;9.832;2023-07-02T07:35:38;100395.19;;;23.50;59.16
8101;BME280;4093;53.470;9.832;2023-07-02T07:38:07;100394.59;;;23.58;58.20
8101;BME280;4093;53.470;9.832;2023-07-02T07:40:35;100402.06;;;23.75;57.59
8101;BME280;4093;53.470;9.832;2023-07-02T07:43:03;100348.22;;;24.64;55.94
8101;BME280;4093;53.470;9.832;2023-07-02T07:45:30;100348.44;;;26.94;49.58
8101;BME280;4093;53.470;9.832;2023-07-02T07:47:58;100351.31;;;27.39;48.81
8101;BME280;4093;53.470;9.832;2023-07-02T07:50:26;100348.00;;;27.93;46.99
8101;BME280;4093;53.470;9.832;2023-07-02T07:52:54;100358.22;;;28.33;45.94
8101;BME280;4093;53.470;9.832;2023-07-02T07:55:23;100333.38;;;29.22;44.69
8101;BME280;4093;53.470;9.832;2023-07-02T07:57:51;100337.59;;;29.67;43.39
8101;BME280;4093;53.470;9.832;2023-07-02T08:00:19;100337.41;;;26.98;48.21
8101;BME280;4093;53.470;9.832;2023-07-02T08:02:47;100338.53;;;26.38;48.79
8101;BME280;4093;53.470;9.832;2023-07-02T08:05:15;100353.00;;;27.68;46.44
8101;BME280;4093;53.470;9.832;2023-07-02T08:07:43;100347.94;;;27.75;45.89
8101;BME280;4093;53.470;9.832;2023-07-02T08:10:11;100336.75;;;28.62;43.45
8101;BME280;4093;53.470;9.832;2023-07-02T08:12:40;100352.47;;;27.27;46.72
8101;BME280;4093;53.470;9.832;2023-07-02T08:15:08;100334.69;;;27.65;45.67
8101;BME280;4093;53.470;9.832;2023-07-02T08:17:35;100347.44;;;27.61;46.15
8101;BME280;4093;53.470;9.832;2023-07-02T08:20:04;100352.19;;;28.41;45.09
8101;BME280;4093;53.470;9.832;2023-07-02T08:22:35;100343.53;;;27.56;44.60
8101;BME280;4093;53.470;9.832;2023-07-02T08:25:04;100330.31;;;26.89;44.94
8101;BME280;4093;53.470;9.832;2023-07-02T08:27:31;100340.94;;;26.80;45.42
8101;BME280;4093;53.470;9.832;2023-07-02T08:30:01;100364.78;;;26.31;45.22
8101;BME280;4093;53.470;9.832;2023-07-02T08:32:28;100353.50;;;26.77;45.57
8101;BME280;4093;53.470;9.832;2023-07-02T08:34:56;100339.75;;;27.11;42.46
8101;BME280;4093;53.470;9.832;2023-07-02T08:37:24;100357.84;;;25.28;45.96
8101;BME280;4093;53.470;9.832;2023-07-02T08:39:51;100357.03;;;25.89;45.41
8101;BME280;4093;53.470;9.832;2023-07-02T08:42:19;100353.56;;;25.68;45.26
8101;BME280;4093;53.470;9.832;2023-07-02T08:44:47;100378.38;;;26.86;45.48
8101;BME280;4093;53.470;9.832;2023-07-02T08:47:16;100355.84;;;25.42;44.94
8101;BME280;4093;53.470;9.832;2023-07-02T08:49:44;100387.22;;;25.46;46.76
8101;BME280;4093;53.470;9.832;2023-07-02T08:52:12;100397.63;;;25.69;46.20
8101;BME280;4093;53.470;9.832;2023-07-02T08:54:40;100377.72;;;25.23;46.86
8101;BME280;4093;53.470;9.832;2023-07-02T08:57:09;100358.59;;;25.40;47.04
8101;BME280;4093;53.470;9.832;2023-07-02T08:59:36;100386.09;;;25.07;48.94
8101;BME280;4093;53.470;9.832;2023-07-02T09:02:04;100404.41;;;24.78;49.70
8101;BME280;4093;53.470;9.832;2023-07-02T09:04:34;100398.69;;;24.93;48.34
8101;BME280;4093;53.470;9.832;2023-07-02T09:07:05;100393.94;;;24.44;48.32
8101;BME280;4093;53.470;9.832;2023-07-02T09:09:44;100423.19;;;24.09;50.31
8101;BME280;4093;53.470;9.832;2023-07-02T09:12:22;100435.88;;;23.59;50.85
8101;BME280;4093;53.470;9.832;2023-07-02T09:14:57;100447.44;;;24.02;51.05
8101;BME280;4093;53.470;9.832;2023-07-02T09:17:29;100444.81;;;24.02;50.11
8101;BME280;4093;53.470;9.832;2023-07-02T09:20:00;100425.09;;;23.15;52.66
8101;BME280;4093;53.470;9.832;2023-07-02T09:22:29;100447.19;;;22.66;53.62
8101;BME280;4093;53.470;9.832;2023-07-02T09:24:58;100450.84;;;22.87;53.18
8101;BME280;4093;53.470;9.832;2023-07-02T09:27:35;100454.63;;;23.31;52.69
8101;BME280;4093;53.470;9.832;2023-07-02T09:30:07;100471.94;;;23.82;53.28
8101;BME280;4093;53.470;9.832;2023-07-02T09:32:35;100481.31;;;23.40;52.62
8101;BME280;4093;53.470;9.832;2023-07-02T09:35:04;100460.63;;;22.74;54.47
8101;BME280;4093;53.470;9.832;2023-07-02T09:37:32;100475.66;;;22.98;53.02
8101;BME280;4093;53.470;9.832;2023-07-02T09:40:01;100496.09;;;23.89;52.16
8101;BME280;4093;53.470;9.832;2023-07-02T09:42:34;100444.94;;;23.78;51.46
8101;BME280;4093;53.470;9.832;2023-07-02T09:45:03;100462.94;;;23.73;52.38
8101;BME280;4093;53.470;9.832;2023-07-02T09:47:35;100488.94;;;24.79;50.80
8101;BME280;4093;53.470;9.832;2023-07-02T09:50:09;100470.00;;;25.27;50.16
8101;BME280;4093;53.470;9.832;2023-07-02T09:52:38;100457.53;;;24.42;51.44
8101;BME280;4093;53.470;9.832;2023-07-02T09:55:07;100488.88;;;25.02;51.42
8101;BME280;4093;53.470;9.832;2023-07-02T09:57:36;100470.38;;;24.47;52.31
8101;BME280;4093;53.470;9.832;2023-07-02T10:00:05;100475.19;;;24.08;53.45
8101;BME280;4093;53.470;9.832;2023-07-02T10:02:34;100462.69;;;24.44;51.98
8101;BME280;4093;53.470;9.832;2023-07-02T10:05:05;100464.00;;;24.16;53.44
8101;BME280;4093;53.470;9.832;2023-07-02T10:07:35;100460.50;;;24.38;51.50
8101;BME280;4093;53.470;9.832;2023-07-02T10:10:03;100488.94;;;24.79;53.31
8101;BME280;4093;53.470;9.832;2023-07-02T10:12:31;100479.59;;;24.64;51.23
8101;BME280;4093;53.470;9.832;2023-07-02T10:14:59;100469.19;;;24.51;51.56
8101;BME280;4093;53.470;9.832;2023-07-02T10:17:28;100487.28;;;25.10;49.62
8101;BME280;4093;53.470;9.832;2023-07-02T10:19:59;100478.31;;;25.23;50.79
8101;BME280;4093;53.470;9.832;2023-07-02T10:22:28;100454.91;;;25.07;49.12
8101;BME280;4093;53.470;9.832;2023-07-02T10:24:58;100469.16;;;25.27;48.86
8101;BME280;4093;53.470;9.832;2023-07-02T10:27:34;100470.59;;;25.52;47.73
8101;BME280;4093;53.470;9.832;2023-07-02T10:30:04;100452.19;;;24.54;49.47
8101;BME280;4093;53.470;9.832;2023-07-02T10:32:32;100446.66;;;24.57;48.21
8101;BME280;4093;53.470;9.832;2023-07-02T10:35:01;100450.22;;;23.90;47.22
8101;BME280;4093;53.470;9.832;2023-07-02T10:37:37;100442.91;;;22.76;50.15
8101;BME280;4093;53.470;9.832;2023-07-02T10:40:07;100469.31;;;22.87;50.24
8101;BME280;4093;53.470;9.832;2023-07-02T10:42:45;100494.72;;;23.37;50.17
8101;BME280;4093;53.470;9.832;2023-07-02T10:45:13;100488.72;;;23.35;51.11
8101;BME280;4093;53.470;9.832;2023-07-02T10:47:41;100479.03;;;23.35;51.10
8101;BME280;4093;53.470;9.832;2023-07-02T10:50:16;100486.84;;;22.89;51.53
8101;BME280;4093;53.470;9.832;2023-07-02T10:52:44;100502.56;;;23.49;51.11
8101;BME280;4093;53.470;9.832;2023-07-02T10:55:17;100498.47;;;23.69;50.78
8101;BME280;4093;53.470;9.832;2023-07-02T10:57:47;100492.38;;;24.14;50.22
8101;BME280;4093;53.470;9.832;2023-07-02T11:00:15;100490.19;;;24.30;49.49
8101;BME280;4093;53.470;9.832;2023-07-02T11:02:43;100464.59;;;23.74;49.28
8101;BME280;4093;53.470;9.832;2023-07-02T11:05:11;100485.53;;;24.22;50.38
8101;BME280;4093;53.470;9.832;2023-07-02T11:07:40;100489.97;;;24.11;50.34
8101;BME280;4093;53.470;9.832;2023-07-02T11:10:09;100486.63;;;23.62;52.01
8101;BME280;4093;53.470;9.832;2023-07-02T11:12:39;100494.63;;;24.18;51.35
8101;BME280;4093;53.470;9.832;2023-07-02T11:15:07;100484.31;;;24.49;48.26
8101;BME280;4093;53.470;9.832;2023-07-02T11:17:35;100507.88;;;24.96;49.00
8101;BME280;4093;53.470;9.832;2023-07-02T11:20:05;100463.66;;;24.09;47.90
8101;BME280;4093;53.470;9.832;2023-07-02T11:22:33;100475.31;;;24.52;48.54
8101;BME280;4093;53.470;9.832;2023-07-02T11:25:11;100488.63;;;24.50;47.75
8101;BME280;4093;53.470;9.832;2023-07-02T11:27:41;100479.88;;;24.27;48.76
8101;BME280;4093;53.470;9.832;2023-07-02T11:30:10;100475.19;;;24.42;48.28
8101;BME280;4093;53.470;9.832;2023-07-02T11:32:48;100471.94;;;24.27;48.53
8101;BME280;4093;53.470;9.832;2023-07-02T11:35:17;100476.56;;;25.01;46.81
8101;BME280;4093;53.470;9.832;2023-07-02T11:37:45;100472.91;;;24.92;47.81
8101;BME280;4093;53.470;9.832;2023-07-02T11:40:17;100491.28;;;25.26;47.25
8101;BME280;4093;53.470;9.832;2023-07-02T11:42:46;100480.09;;;25.33;47.23
8101;BME280;4093;53.470;9.832;2023-07-02T11:45:14;100478.63;;;24.97;46.75
8101;BME280;4093;53.470;9.832;2023-07-02T11:47:42;100468.75;;;25.10;45.89
8101;BME280;4093;53.470;9.832;2023-07-02T11:50:10;100470.41;;;24.13;45.79
8101;BME280;4093;53.470;9.832;2023-07-02T11:52:51;100466.06;;;23.43;47.94
8101;BME280;4093;53.470;9.832;2023-07-02T11:55:19;100484.78;;;23.75;47.23
8101;BME280;4093;53.470;9.832;2023-07-02T11:57:48;100503.53;;;24.40;46.93
8101;BME280;4093;53.470;9.832;2023-07-02T12:00:17;100495.47;;;24.53;47.07
8101;BME280;4093;53.470;9.832;2023-07-02T12:02:44;100494.00;;;24.60;47.57
8101;BME280;4093;53.470;9.832;2023-07-02T12:05:12;100483.59;;;24.24;46.38
8101;BME280;4093;53.470;9.832;2023-07-02T12:07:40;100493.69;;;23.86;46.44
8101;BME280;4093;53.470;9.832;2023-07-02T12:10:08;100509.28;;;23.18;49.12
8101;BME280;4093;53.470;9.832;2023-07-02T12:12:36;100519.47;;;23.47;49.61
8101;BME280;4093;53.470;9.832;2023-07-02T12:15:06;100528.78;;;24.33;48.34
8101;BME280;4093;53.470;9.832;2023-07-02T12:17:33;100539.09;;;24.58;48.54
8101;BME280;4093;53.470;9.832;2023-07-02T12:20:01;100501.47;;;24.66;46.36
8101;BME280;4093;53.470;9.832;2023-07-02T12:22:29;100500.41;;;24.57;48.02
8101;BME280;4093;53.470;9.832;2023-07-02T12:24:57;100513.59;;;24.35;47.55
8101;BME280;4093;53.470;9.832;2023-07-02T12:27:25;100520.84;;;24.55;47.15
8101;BME280;4093;53.470;9.832;2023-07-02T12:29:53;100521.34;;;24.49;46.21
8101;BME280;4093;53.470;9.832;2023-07-02T12:32:22;100532.94;;;24.80;45.96
8101;BME280;4093;53.470;9.832;2023-07-02T12:34:50;100536.31;;;24.37;45.81
8101;BME280;4093;53.470;9.832;2023-07-02T12:37:18;100522.00;;;24.29;46.48
8101;BME280;4093;53.470;9.832;2023-07-02T12:39:47;100506.28;;;24.16;46.38
8101;BME280;4093;53.470;9.832;2023-07-02T12:42:15;100508.06;;;23.82;46.83
8101;BME280;4093;53.470;9.832;2023-07-02T12:44:42;100498.13;;;23.50;47.89
8101;BME280;4093;53.470;9.832;2023-07-02T12:47:10;100522.59;;;23.87;49.25
8101;BME280;4093;53.470;9.832;2023-07-02T12:49:39;100546.41;;;24.21;48.31
8101;BME280;4093;53.470;9.832;2023-07-02T12:52:07;100558.91;;;24.19;49.81
8101;BME280;4093;53.470;9.832;2023-07-02T12:54:35;100567.19;;;24.93;48.32
8101;BME280;4093;53.470;9.832;2023-07-02T12:57:03;100545.13;;;24.49;48.62
8101;BME280;4093;53.470;9.832;2023-07-02T12:59:31;100547.13;;;24.34;49.04
8101;BME280;4093;53.470;9.832;2023-07-02T13:01:58;100562.50;;;23.60;51.00
8101;BME280;4093;53.470;9.832;2023-07-02T13:04:26;100567.66;;;23.38;49.47
8101;BME280;4093;53.470;9.832;2023-07-02T13:06:55;100568.47;;;23.51;50.04
8101;BME280;4093;53.470;9.832;2023-07-02T13:09:23;100558.28;;;23.22;49.61
8101;BME280;4093;53.470;9.832;2023-07-02T13:11:51;100576.78;;;23.33;50.79
8101;BME280;4093;53.470;9.832;2023-07-02T13:14:19;100598.66;;;24.06;50.03
8101;BME280;4093;53.470;9.832;2023-07-02T13:16:46;100608.47;;;24.73;49.61